createdAt,value
2023-01-29T00:01:22.656Z,17.98
2023-01-29T00:03:51.163Z,17.90
2023-01-29T00:06:17.807Z,17.57
2023-01-29T00:08:44.297Z,17.77
2023-01-29T00:11:10.839Z,17.75
2023-01-29T00:13:37.386Z,17.42
2023-01-29T00:16:05.412Z,17.97
2023-01-29T00:18:31.964Z,17.60
2023-01-29T00:20:58.551Z,17.65
2023-01-29T00:23:25.080Z,16.02
2023-01-29T00:25:51.577Z,17.63
2023-01-29T00:28:20.050Z,17.27
2023-01-29T00:30:46.667Z,16.92
2023-01-29T00:33:14.516Z,17.77
2023-01-29T00:35:41.086Z,17.03
2023-01-29T00:38:07.596Z,16.50
2023-01-29T00:40:37.851Z,16.80
2023-01-29T00:43:04.377Z,17.58
2023-01-29T00:45:30.916Z,17.23
2023-01-29T00:47:57.804Z,17.02
2023-01-29T00:50:25.697Z,16.58
2023-01-29T00:52:52.489Z,16.90
2023-01-29T00:55:19.160Z,16.83
2023-01-29T00:57:45.743Z,16.75
2023-01-29T01:00:15.020Z,16.60
2023-01-29T01:02:42.002Z,16.60
2023-01-29T01:05:10.127Z,17.13
2023-01-29T01:07:38.057Z,17.00
2023-01-29T01:10:05.142Z,17.08
2023-01-29T01:12:32.266Z,17.65
2023-01-29T01:14:58.733Z,17.17
2023-01-29T01:17:25.331Z,16.63
2023-01-29T01:19:51.869Z,17.50
2023-01-29T01:22:18.622Z,16.73
2023-01-29T01:24:46.597Z,17.70
2023-01-29T01:27:13.359Z,16.88
2023-01-29T01:29:39.952Z,18.40
2023-01-29T01:32:06.619Z,18.23
2023-01-29T01:34:33.311Z,16.38
2023-01-29T01:36:59.836Z,16.55
2023-01-29T01:39:26.394Z,16.30
2023-01-29T01:41:54.438Z,17.77
2023-01-29T01:44:53.505Z,18.42
2023-01-29T01:47:26.993Z,16.17
2023-01-29T01:49:56.123Z,17.77
2023-01-29T01:52:22.944Z,16.73
2023-01-29T01:54:50.848Z,18.20
2023-01-29T01:57:23.676Z,18.05
2023-01-29T01:59:55.165Z,17.50
2023-01-29T02:02:22.023Z,18.40
2023-01-29T02:04:49.697Z,18.92
2023-01-29T02:07:16.419Z,17.80
2023-01-29T02:09:49.629Z,17.50
2023-01-29T02:12:18.374Z,16.90
2023-01-29T02:14:44.979Z,17.60
2023-01-29T02:17:14.477Z,17.35
2023-01-29T02:19:47.953Z,17.50
2023-01-29T02:22:29.833Z,17.42
2023-01-29T02:25:06.893Z,16.33
2023-01-29T02:27:48.218Z,16.58
2023-01-29T02:30:21.229Z,17.33
2023-01-29T02:32:53.219Z,16.58
2023-01-29T02:35:29.584Z,17.90
2023-01-29T02:38:07.252Z,17.05
2023-01-29T02:40:39.308Z,17.55
2023-01-29T02:43:15.381Z,18.17
2023-01-29T02:45:49.031Z,17.67
2023-01-29T02:48:19.581Z,15.63
2023-01-29T02:50:53.745Z,17.55
2023-01-29T02:53:25.891Z,17.55
2023-01-29T02:55:55.337Z,16.73
2023-01-29T02:58:29.961Z,17.00
2023-01-29T03:01:03.580Z,17.05
2023-01-29T03:03:34.179Z,17.80
2023-01-29T03:06:05.128Z,17.50
2023-01-29T03:08:36.417Z,17.20
2023-01-29T03:11:05.821Z,17.33
2023-01-29T03:13:40.588Z,16.95
2023-01-29T03:16:15.029Z,17.77
2023-01-29T03:18:45.870Z,18.00
2023-01-29T03:21:18.578Z,18.13
2023-01-29T03:23:45.110Z,17.33
2023-01-29T03:26:13.263Z,17.77
2023-01-29T03:28:42.072Z,17.45
2023-01-29T03:31:13.711Z,16.95
2023-01-29T03:33:45.534Z,15.98
2023-01-29T03:36:17.012Z,17.10
2023-01-29T03:38:44.248Z,16.45
2023-01-29T03:41:18.757Z,17.33
2023-01-29T03:43:53.441Z,16.67
2023-01-29T03:46:27.336Z,16.13
2023-01-29T03:48:59.509Z,15.95
2023-01-29T03:51:32.336Z,16.17
2023-01-29T03:54:08.311Z,16.33
2023-01-29T03:56:44.792Z,17.13
2023-01-29T03:59:21.032Z,16.27
2023-01-29T04:01:53.460Z,17.60
2023-01-29T04:04:26.650Z,17.67
2023-01-29T04:06:57.579Z,17.13
2023-01-29T04:09:30.279Z,17.30
2023-01-29T04:12:02.458Z,17.23
2023-01-29T04:14:31.865Z,16.75
2023-01-29T04:17:03.524Z,16.67
2023-01-29T04:19:30.412Z,17.27
2023-01-29T04:22:03.989Z,18.13
2023-01-29T04:24:31.080Z,17.00
2023-01-29T04:27:07.418Z,17.37
2023-01-29T04:29:47.584Z,17.25
2023-01-29T04:32:24.457Z,15.55
2023-01-29T04:35:04.475Z,17.27
2023-01-29T04:37:37.710Z,16.77
2023-01-29T04:40:15.892Z,16.10
2023-01-29T04:42:49.164Z,16.55
2023-01-29T04:45:22.664Z,15.25
2023-01-29T04:47:58.209Z,15.87
2023-01-29T04:50:31.191Z,17.30
2023-01-29T04:53:03.780Z,15.88
2023-01-29T04:55:36.831Z,16.10
2023-01-29T04:58:08.520Z,17.67
2023-01-29T05:00:40.420Z,15.98
2023-01-29T05:03:08.645Z,16.52
2023-01-29T05:05:36.536Z,15.90
2023-01-29T05:08:04.785Z,16.05
2023-01-29T05:10:31.447Z,16.08
2023-01-29T05:13:00.914Z,15.60
2023-01-29T05:15:33.627Z,16.35
2023-01-29T05:18:00.203Z,15.35
2023-01-29T05:20:31.095Z,16.15
2023-01-29T05:22:57.888Z,15.77
2023-01-29T05:25:26.623Z,15.73
2023-01-29T05:27:54.039Z,15.00
2023-01-29T05:30:20.592Z,15.73
2023-01-29T05:32:47.104Z,16.50
2023-01-29T05:35:13.753Z,17.17
2023-01-29T05:37:41.606Z,16.38
2023-01-29T05:40:09.481Z,16.85
2023-01-29T05:42:36.401Z,16.38
2023-01-29T05:45:03.165Z,16.57
2023-01-29T05:47:29.977Z,16.02
2023-01-29T05:49:56.836Z,15.90
2023-01-29T05:52:23.361Z,17.83
2023-01-29T05:54:51.388Z,16.73
2023-01-29T05:57:17.880Z,16.90
2023-01-29T05:59:44.424Z,16.50
2023-01-29T06:02:11.048Z,16.02
2023-01-29T06:04:37.540Z,16.75
2023-01-29T06:07:04.225Z,15.98
2023-01-29T06:09:31.219Z,17.05
2023-01-29T06:11:59.153Z,16.55
2023-01-29T06:14:25.883Z,16.87
2023-01-29T06:16:52.368Z,16.35
2023-01-29T06:19:18.879Z,17.20
2023-01-29T06:21:45.363Z,17.55
2023-01-29T06:24:12.118Z,16.17
2023-01-29T06:26:38.797Z,15.18
2023-01-29T06:29:06.892Z,15.90
2023-01-29T06:31:38.820Z,17.00
2023-01-29T06:34:06.335Z,16.65
2023-01-29T06:36:33.589Z,16.80
2023-01-29T06:39:00.119Z,16.40
2023-01-29T06:41:26.762Z,15.52
2023-01-29T06:43:53.287Z,15.73
2023-01-29T06:46:21.265Z,16.55
2023-01-29T06:48:47.824Z,15.80
2023-01-29T06:51:14.498Z,16.10
2023-01-29T06:53:42.857Z,16.80
2023-01-29T06:56:10.697Z,16.80
2023-01-29T06:58:37.712Z,15.88
2023-01-29T07:01:05.787Z,17.20
2023-01-29T07:03:33.802Z,16.87
2023-01-29T07:06:00.434Z,16.95
2023-01-29T07:08:27.018Z,18.05
2023-01-29T07:10:53.636Z,17.15
2023-01-29T07:13:20.153Z,17.23
2023-01-29T07:15:46.606Z,17.20
2023-01-29T07:18:13.287Z,17.30
2023-01-29T07:20:42.891Z,15.50
2023-01-29T07:23:12.080Z,16.83
2023-01-29T07:25:41.747Z,16.73
2023-01-29T07:28:08.309Z,17.20
2023-01-29T07:33:19.872Z,16.53
2023-01-29T07:35:48.102Z,15.82
2023-01-29T07:38:14.703Z,15.77
2023-01-29T07:40:41.754Z,16.30
2023-01-29T07:43:09.636Z,16.73
2023-01-29T07:45:41.441Z,17.33
2023-01-29T07:48:11.464Z,18.20
2023-01-29T07:50:38.834Z,17.30
2023-01-29T07:53:13.059Z,17.43
2023-01-29T07:55:43.670Z,15.77
2023-01-29T07:58:11.710Z,15.85
2023-01-29T08:00:38.677Z,17.42
2023-01-29T08:03:07.493Z,16.93
2023-01-29T08:05:37.842Z,17.17
2023-01-29T08:08:07.657Z,16.73
2023-01-29T08:10:35.684Z,15.35
2023-01-29T08:13:02.848Z,16.03
2023-01-29T08:15:31.840Z,16.92
2023-01-29T08:17:58.792Z,16.85
2023-01-29T08:20:27.593Z,17.13
2023-01-29T08:22:59.142Z,17.17
2023-01-29T08:25:32.673Z,16.40
2023-01-29T08:28:01.726Z,16.10
2023-01-29T08:30:31.578Z,16.52
2023-01-29T08:46:34.713Z,15.23
2023-01-29T08:49:01.263Z,15.77
2023-01-29T08:51:27.843Z,15.98
2023-01-29T08:53:54.379Z,16.17
2023-01-29T08:56:21.171Z,16.67
2023-01-29T08:58:47.698Z,16.77
2023-01-29T09:01:14.822Z,16.73
2023-01-29T09:03:42.783Z,16.23
2023-01-29T09:06:10.696Z,16.53
2023-01-29T09:08:39.946Z,16.60
2023-01-29T09:11:14.463Z,16.05
2023-01-29T09:13:46.064Z,16.50
2023-01-29T09:16:16.266Z,16.03
2023-01-29T09:18:44.172Z,16.23
2023-01-29T09:21:16.517Z,16.17
2023-01-29T09:23:43.068Z,15.82
2023-01-29T09:26:09.715Z,16.03
2023-01-29T09:28:36.484Z,16.25
2023-01-29T09:31:03.491Z,15.90
2023-01-29T09:33:30.169Z,15.10
2023-01-29T09:36:28.618Z,14.27
2023-01-29T09:38:58.294Z,16.02
2023-01-29T09:41:39.215Z,15.98
2023-01-29T09:44:15.236Z,15.52
2023-01-29T09:46:44.563Z,14.77
2023-01-29T09:49:15.884Z,14.80
2023-01-29T09:51:48.951Z,16.15
2023-01-29T09:54:23.084Z,16.67
2023-01-29T09:56:56.724Z,15.30
2023-01-29T09:59:31.557Z,14.68
2023-01-29T10:02:10.121Z,15.38
2023-01-29T10:05:02.439Z,14.70
2023-01-29T10:08:02.701Z,16.27
2023-01-29T10:10:42.596Z,15.18
2023-01-29T10:13:18.759Z,16.25
2023-01-29T10:16:02.787Z,16.05
2023-01-29T10:22:30.737Z,14.13
2023-01-29T10:25:11.285Z,14.55
2023-01-29T10:27:48.478Z,15.75
2023-01-29T10:30:26.158Z,15.05
2023-01-29T10:32:57.699Z,15.93
2023-01-29T10:35:29.742Z,15.40
2023-01-29T10:37:58.359Z,15.43
2023-01-29T10:40:36.480Z,15.60
2023-01-29T10:43:33.505Z,15.23
2023-01-29T10:46:40.962Z,14.43
2023-01-29T10:49:24.935Z,15.05
2023-01-29T10:52:08.091Z,15.27
2023-01-29T10:54:59.742Z,15.65
2023-01-29T10:57:47.354Z,16.15
2023-01-29T11:00:22.417Z,14.55
2023-01-29T11:02:50.789Z,16.02
2023-01-29T11:05:26.187Z,15.63
2023-01-29T11:08:01.487Z,14.82
2023-01-29T11:10:33.102Z,15.90
2023-01-29T11:13:01.083Z,15.52
2023-01-29T11:15:32.029Z,15.87
2023-01-29T11:18:03.281Z,16.88
2023-01-29T11:20:32.155Z,17.02
2023-01-29T11:22:58.800Z,16.92
2023-01-29T11:25:25.710Z,16.35
2023-01-29T11:27:54.432Z,14.93
2023-01-29T11:30:25.842Z,15.95
2023-01-29T11:33:00.575Z,16.23
2023-01-29T11:35:27.230Z,15.73
2023-01-29T11:38:07.703Z,16.40
2023-01-29T11:40:39.475Z,16.35
2023-01-29T11:43:24.943Z,15.90
2023-01-29T11:46:01.526Z,15.98
2023-01-29T11:48:39.976Z,16.33
2023-01-29T11:51:22.719Z,16.13
2023-01-29T11:53:52.681Z,15.07
2023-01-29T11:56:23.388Z,17.48
2023-01-29T11:58:52.147Z,17.00
2023-01-29T12:01:31.069Z,15.93
2023-01-29T12:04:00.487Z,17.70
2023-01-29T12:06:34.897Z,15.50
2023-01-29T12:09:08.914Z,17.27
2023-01-29T12:11:35.750Z,17.52
2023-01-29T12:14:04.844Z,16.57
2023-01-29T12:16:38.429Z,17.50
2023-01-29T12:19:12.129Z,16.85
2023-01-29T12:21:46.727Z,17.13
2023-01-29T12:24:32.723Z,16.77
2023-01-29T12:27:06.787Z,16.23
2023-01-29T12:29:41.168Z,15.95
2023-01-29T12:32:18.796Z,16.80
2023-01-29T12:34:50.753Z,17.20
2023-01-29T12:37:22.410Z,15.60
2023-01-29T12:39:51.012Z,16.60
2023-01-29T12:42:23.374Z,17.63
2023-01-29T12:44:54.455Z,17.35
2023-01-29T12:47:26.043Z,17.02
2023-01-29T12:49:57.068Z,16.07
2023-01-29T12:52:45.487Z,16.52
2023-01-29T12:55:18.342Z,16.55
2023-01-29T12:57:50.668Z,16.58
2023-01-29T13:00:26.835Z,16.60
2023-01-29T13:03:00.855Z,15.65
2023-01-29T13:05:33.984Z,15.60
2023-01-29T13:08:06.632Z,15.50
2023-01-29T13:10:41.263Z,15.63
2023-01-29T13:13:16.728Z,16.43
2023-01-29T13:15:44.038Z,16.23
2023-01-29T13:18:48.381Z,16.55
2023-01-29T13:21:21.586Z,16.08
2023-01-29T13:24:25.684Z,15.85
2023-01-29T13:27:04.085Z,15.90
2023-01-29T13:29:31.638Z,16.42
2023-01-29T13:32:01.635Z,15.90
2023-01-29T13:34:32.559Z,15.18
2023-01-29T13:37:03.201Z,16.23
2023-01-29T13:39:33.169Z,15.50
2023-01-29T13:42:03.481Z,16.25
2023-01-29T13:44:34.755Z,16.00
2023-01-29T13:47:07.593Z,15.90
2023-01-29T13:49:40.363Z,15.98
2023-01-29T13:52:31.267Z,16.13
2023-01-29T13:55:01.415Z,16.05
2023-01-29T13:57:46.431Z,16.52
2023-01-29T14:00:56.017Z,16.70
2023-01-29T14:04:03.289Z,16.80
2023-01-29T14:06:55.219Z,16.33
2023-01-29T14:09:46.540Z,17.40
2023-01-29T14:12:44.392Z,17.00
2023-01-29T14:15:35.679Z,16.08
2023-01-29T14:18:18.413Z,16.23
2023-01-29T14:21:20.603Z,15.93
2023-01-29T14:23:51.837Z,15.93
2023-01-29T14:26:31.707Z,16.25
2023-01-29T14:29:03.753Z,15.85
2023-01-29T14:31:37.059Z,16.37
2023-01-29T14:34:08.912Z,14.60
2023-01-29T14:36:40.867Z,16.08
2023-01-29T14:39:23.504Z,17.33
2023-01-29T14:42:18.491Z,16.05
2023-01-29T14:45:10.070Z,15.93
2023-01-29T14:48:03.320Z,15.80
2023-01-29T14:50:43.657Z,16.35
2023-01-29T14:53:44.232Z,15.52
2023-01-29T14:56:56.461Z,15.90
2023-01-29T15:00:10.773Z,15.80
2023-01-29T15:03:37.606Z,15.63
2023-01-29T15:05:55.633Z,15.13
2023-01-29T15:08:27.836Z,15.05
2023-01-29T15:10:57.396Z,16.08
2023-01-29T15:13:32.780Z,15.70
2023-01-29T15:16:09.584Z,15.25
2023-01-29T15:18:39.067Z,15.95
2023-01-29T15:21:11.564Z,15.32
2023-01-29T15:23:38.985Z,15.60
2023-01-29T15:26:08.196Z,14.97
2023-01-29T15:28:36.125Z,15.07
2023-01-29T15:31:11.574Z,14.82
2023-01-29T15:33:38.354Z,14.80
2023-01-29T15:36:08.237Z,14.65
2023-01-29T15:38:35.456Z,13.63
2023-01-29T15:41:04.000Z,14.23
2023-01-29T15:43:34.575Z,13.45
2023-01-29T15:46:07.349Z,13.57
2023-01-29T15:48:37.551Z,13.07
2023-01-29T15:51:16.804Z,13.67
2023-01-29T15:53:48.822Z,13.30
2023-01-29T15:56:18.409Z,13.10
2023-01-29T15:58:48.319Z,13.90
2023-01-29T16:03:59.498Z,12.85
2023-01-29T16:06:26.796Z,12.90
2023-01-29T16:08:55.244Z,13.90
2023-01-29T16:11:22.054Z,13.57
2023-01-29T16:13:50.862Z,13.80
2023-01-29T16:16:23.819Z,13.07
2023-01-29T16:18:59.623Z,13.63
2023-01-29T16:21:30.138Z,12.98
2023-01-29T16:23:59.363Z,12.70
2023-01-29T16:26:31.601Z,13.03
2023-01-29T16:29:04.322Z,13.75
2023-01-29T16:31:32.807Z,12.43
2023-01-29T16:34:06.442Z,12.30
2023-01-29T16:36:33.623Z,12.73
2023-01-29T16:39:02.318Z,11.82
2023-01-29T16:41:31.053Z,11.10
2023-01-29T16:44:00.477Z,11.32
2023-01-29T16:46:34.623Z,11.93
2023-01-29T16:49:02.104Z,11.00
2023-01-29T16:51:30.365Z,10.40
2023-01-29T16:54:02.368Z,10.20
2023-01-29T16:56:33.027Z,10.77
2023-01-29T16:59:02.597Z,11.75
2023-01-29T17:01:30.337Z,10.27
2023-01-29T17:04:04.305Z,10.55
2023-01-29T17:06:32.370Z,10.27
2023-01-29T17:08:59.362Z,10.32
2023-01-29T17:11:31.506Z,9.53
2023-01-29T17:14:00.479Z,9.43
2023-01-29T17:16:30.992Z,9.55
2023-01-29T17:18:59.571Z,10.13
2023-01-29T17:21:28.380Z,10.48
2023-01-29T17:23:54.950Z,10.60
2023-01-29T17:26:23.107Z,10.45
2023-01-29T17:28:51.567Z,10.50
2023-01-29T17:31:21.981Z,11.48
2023-01-29T17:33:48.566Z,10.00
2023-01-29T17:36:17.495Z,10.27
2023-01-29T17:38:44.639Z,9.48
2023-01-29T17:41:18.076Z,11.48
2023-01-29T17:43:44.771Z,9.98
2023-01-29T17:46:14.624Z,10.50
2023-01-29T17:48:41.444Z,9.38
2023-01-29T17:51:11.580Z,10.15
2023-01-29T17:53:47.645Z,9.65
2023-01-29T17:56:16.926Z,10.45
2023-01-29T17:58:43.701Z,9.80
2023-01-29T18:01:10.242Z,10.82
2023-01-29T18:03:37.043Z,10.82
2023-01-29T18:06:06.639Z,10.52
2023-01-29T18:08:35.677Z,11.07
2023-01-29T18:11:06.803Z,10.20
2023-01-29T18:13:33.345Z,11.50
2023-01-29T18:15:59.942Z,11.07
2023-01-29T18:18:26.574Z,11.07
2023-01-29T18:20:53.182Z,10.75
2023-01-29T18:23:19.745Z,10.60
2023-01-29T18:25:46.157Z,11.13
2023-01-29T18:28:16.627Z,11.85
2023-01-29T18:30:43.699Z,10.75
2023-01-29T18:33:10.241Z,11.02
2023-01-29T18:35:36.777Z,9.40
2023-01-29T18:38:03.388Z,9.75
2023-01-29T18:40:31.511Z,10.50
2023-01-29T18:42:58.084Z,10.95
2023-01-29T18:45:26.408Z,9.60
2023-01-29T18:47:52.970Z,9.98
2023-01-29T18:50:19.712Z,11.40
2023-01-29T18:52:46.259Z,10.63
2023-01-29T18:55:13.069Z,12.55
2023-01-29T18:58:25.089Z,9.57
2023-01-29T19:00:27.716Z,10.07
2023-01-29T19:02:54.365Z,10.07
2023-01-29T19:05:20.893Z,10.27
2023-01-29T19:07:47.385Z,9.95
2023-01-29T19:10:13.902Z,11.77
2023-01-29T19:12:40.380Z,11.60
2023-01-29T19:15:09.999Z,10.85
2023-01-29T19:17:38.226Z,10.30
2023-01-29T19:20:05.289Z,10.38
2023-01-29T19:22:32.466Z,9.20
2023-01-29T19:24:59.375Z,10.00
2023-01-29T19:27:25.886Z,10.18
2023-01-29T19:29:52.560Z,10.85
2023-01-29T19:32:19.228Z,8.80
2023-01-29T19:34:47.249Z,10.30
2023-01-29T19:37:13.776Z,11.57
2023-01-29T19:39:40.500Z,9.68
2023-01-29T19:42:07.123Z,10.15
2023-01-29T19:44:33.674Z,14.60
2023-01-29T19:47:00.815Z,10.00
2023-01-29T19:49:29.061Z,9.55
2023-01-29T19:51:56.909Z,21.85
2023-01-29T19:54:23.505Z,21.27
2023-01-29T19:56:50.039Z,13.27
2023-01-29T19:59:16.577Z,9.70
2023-01-29T20:01:43.400Z,9.45
2023-01-29T20:04:09.892Z,10.15
2023-01-29T20:06:36.468Z,8.88
2023-01-29T20:09:04.672Z,9.27
2023-01-29T20:11:31.944Z,9.55
2023-01-29T20:13:59.185Z,9.18
2023-01-29T20:16:26.309Z,9.45
2023-01-29T20:52:34.444Z,8.20
2023-01-29T20:55:01.249Z,9.30
2023-01-29T20:57:28.084Z,9.00
2023-01-29T20:59:54.644Z,9.05
2023-01-29T21:02:21.280Z,9.82
2023-01-29T21:04:47.878Z,10.27
2023-01-29T21:07:14.444Z,9.70
2023-01-29T21:09:42.486Z,9.52
2023-01-29T21:12:11.382Z,9.20
2023-01-29T21:14:38.000Z,9.65
2023-01-29T21:17:04.551Z,9.10
2023-01-29T21:19:31.301Z,9.63
2023-01-29T21:21:57.897Z,9.65
2023-01-29T21:24:24.738Z,10.05
2023-01-29T21:26:53.053Z,9.57
2023-01-29T21:29:19.630Z,9.80
2023-01-29T21:31:46.178Z,9.47
2023-01-29T21:34:12.765Z,9.00
2023-01-29T21:36:39.295Z,8.95
2023-01-29T21:39:06.640Z,9.43
2023-01-29T21:41:33.219Z,9.70
2023-01-29T21:44:01.090Z,9.90
2023-01-29T21:46:27.642Z,9.52
2023-01-29T21:48:54.174Z,9.88
2023-01-29T21:51:20.758Z,9.98
2023-01-29T21:53:47.332Z,11.15
2023-01-29T21:56:13.842Z,10.63
2023-01-29T21:58:40.378Z,9.02
2023-01-29T22:01:23.043Z,9.23
2023-01-29T22:03:54.748Z,10.57
2023-01-29T22:06:21.283Z,10.35
2023-01-29T22:08:48.331Z,9.67
2023-01-29T22:11:15.534Z,10.43
2023-01-29T22:13:42.382Z,10.32
2023-01-29T22:16:10.331Z,10.05
2023-01-29T22:18:36.807Z,9.57
2023-01-29T22:21:03.771Z,9.77
2023-01-29T22:23:30.933Z,9.98
2023-01-29T22:26:02.895Z,9.90
2023-01-29T22:28:29.369Z,9.32
2023-01-29T22:31:00.592Z,10.48
2023-01-29T22:33:28.729Z,10.17
2023-01-29T22:35:55.385Z,9.90
2023-01-29T22:38:22.048Z,8.95
2023-01-29T22:40:49.599Z,9.48
2023-01-29T22:43:16.222Z,10.05
2023-01-29T22:45:42.744Z,10.60
2023-01-29T22:48:09.227Z,10.10
2023-01-29T22:50:37.292Z,10.27
2023-01-29T22:53:03.817Z,10.38
2023-01-29T22:55:30.712Z,11.13
2023-01-29T22:57:57.328Z,9.82
2023-01-29T23:00:24.196Z,11.20
2023-01-29T23:02:51.108Z,10.95
2023-01-29T23:05:18.084Z,10.40
2023-01-29T23:07:45.914Z,11.30
2023-01-29T23:10:14.315Z,10.27
2023-01-29T23:12:41.127Z,10.85
2023-01-29T23:15:08.226Z,11.23
2023-01-29T23:17:34.826Z,10.95
2023-01-29T23:20:01.323Z,12.83
2023-01-29T23:22:28.057Z,9.50
2023-01-29T23:24:55.968Z,10.38
2023-01-29T23:27:22.960Z,11.15
2023-01-29T23:29:49.426Z,11.27
2023-01-29T23:32:18.315Z,10.27
2023-01-29T23:34:44.979Z,10.30
2023-01-29T23:37:11.734Z,11.05
2023-01-29T23:39:38.601Z,10.32
2023-01-29T23:42:06.541Z,10.65
2023-01-29T23:44:33.137Z,10.37
2023-01-29T23:46:59.766Z,10.98
2023-01-29T23:49:26.357Z,11.30
2023-01-29T23:51:52.883Z,10.00
2023-01-29T23:54:19.423Z,10.20
2023-01-29T23:56:46.014Z,11.30
2023-01-29T23:59:15.385Z,9.75
